createdAt,value
2022-09-03T00:05:56.593Z,85.10
2022-09-03T00:08:35.624Z,85.90
2022-09-03T00:14:27.061Z,86.00
2022-09-03T00:17:04.525Z,86.00
2022-09-03T00:22:38.070Z,86.40
2022-09-03T00:25:07.883Z,86.40
2022-09-03T00:27:39.706Z,86.30
2022-09-03T00:30:13.747Z,86.40
2022-09-03T00:32:56.083Z,86.30
2022-09-03T00:35:32.153Z,86.20
2022-09-03T00:38:00.579Z,86.40
2022-09-03T00:40:49.508Z,86.30
2022-09-03T00:43:47.800Z,86.70
2022-09-03T00:46:19.548Z,86.60
2022-09-03T00:49:20.065Z,86.70
2022-09-03T00:52:06.159Z,86.80
2022-09-03T00:55:02.522Z,87.20
2022-09-03T00:57:57.852Z,87.10
2022-09-03T01:00:24.590Z,87.10
2022-09-03T01:03:08.700Z,87.40
2022-09-03T01:05:41.372Z,87.80
2022-09-03T01:08:26.701Z,88.20
2022-09-03T01:11:20.029Z,88.30
2022-09-03T01:13:55.931Z,88.70
2022-09-03T01:16:36.882Z,88.60
2022-09-03T01:19:35.581Z,88.60
2022-09-03T01:22:08.006Z,88.70
2022-09-03T01:24:49.912Z,89.70
2022-09-03T01:27:43.993Z,88.80
2022-09-03T01:30:18.453Z,89.30
2022-09-03T01:33:16.996Z,89.20
2022-09-03T01:35:55.264Z,89.30
2022-09-03T01:38:44.660Z,88.90
2022-09-03T01:42:03.746Z,89.40
2022-09-03T01:45:06.328Z,89.80
2022-09-03T01:48:12.930Z,89.50
2022-09-03T01:51:00.216Z,89.70
2022-09-03T01:53:39.035Z,90.10
2022-09-03T01:56:36.099Z,89.40
2022-09-03T01:59:21.535Z,90.00
2022-09-03T02:02:03.882Z,90.00
2022-09-03T02:04:31.754Z,90.20
2022-09-03T02:07:00.742Z,90.50
2022-09-03T02:09:32.973Z,90.50
2022-09-03T02:12:13.774Z,90.30
2022-09-03T02:14:40.938Z,90.40
2022-09-03T02:17:08.360Z,90.10
2022-09-03T02:19:37.746Z,90.20
2022-09-03T02:22:05.270Z,90.20
2022-09-03T02:24:32.896Z,90.00
2022-09-03T02:26:59.551Z,90.10
2022-09-03T02:29:26.917Z,90.10
2022-09-03T02:31:54.563Z,90.20
2022-09-03T02:34:21.310Z,90.50
2022-09-03T02:36:48.098Z,90.20
2022-09-03T02:39:16.326Z,90.20
2022-09-03T02:41:44.001Z,90.10
2022-09-03T02:44:27.221Z,90.10
2022-09-03T02:46:58.686Z,90.30
2022-09-03T02:49:25.409Z,90.40
2022-09-03T02:51:52.021Z,90.20
2022-09-03T02:54:21.063Z,90.10
2022-09-03T02:56:49.763Z,90.50
2022-09-03T02:59:17.885Z,90.10
2022-09-03T03:01:46.474Z,90.40
2022-09-03T03:04:13.664Z,90.20
2022-09-03T03:06:40.442Z,90.10
2022-09-03T03:09:08.584Z,90.40
2022-09-03T03:11:37.065Z,90.30
2022-09-03T03:14:04.018Z,90.40
2022-09-03T03:16:30.805Z,90.10
2022-09-03T03:18:57.775Z,90.20
2022-09-03T03:21:24.509Z,90.10
2022-09-03T03:23:51.193Z,90.20
2022-09-03T03:26:19.771Z,90.20
2022-09-03T03:28:48.777Z,90.10
2022-09-03T03:31:20.952Z,90.30
2022-09-03T03:33:53.180Z,90.40
2022-09-03T03:36:20.501Z,90.50
2022-09-03T03:38:47.453Z,90.40
2022-09-03T03:41:17.402Z,90.40
2022-09-03T03:43:45.042Z,90.40
2022-09-03T03:46:12.417Z,90.50
2022-09-03T03:48:39.560Z,90.40
2022-09-03T03:51:08.646Z,90.50
2022-09-03T03:53:37.549Z,90.40
2022-09-03T03:56:07.254Z,90.50
2022-09-03T03:58:33.941Z,90.60
2022-09-03T04:01:15.023Z,90.70
2022-09-03T04:03:42.725Z,90.50
2022-09-03T04:06:11.213Z,90.50
2022-09-03T04:08:40.233Z,90.60
2022-09-03T04:11:09.924Z,90.60
2022-09-03T04:13:37.873Z,90.80
2022-09-03T04:16:09.241Z,90.90
2022-09-03T04:18:37.049Z,90.70
2022-09-03T04:21:16.234Z,90.90
2022-09-03T04:23:45.188Z,90.80
2022-09-03T04:26:14.721Z,91.00
2022-09-03T04:28:42.075Z,90.90
2022-09-03T04:31:11.458Z,90.90
2022-09-03T04:33:38.724Z,90.90
2022-09-03T04:36:10.091Z,90.80
2022-09-03T04:38:39.075Z,90.90
2022-09-03T04:41:07.668Z,90.90
2022-09-03T04:43:34.532Z,91.20
2022-09-03T04:46:03.240Z,91.00
2022-09-03T04:48:31.647Z,91.10
2022-09-03T04:51:13.463Z,91.10
2022-09-03T04:53:42.359Z,91.10
2022-09-03T04:56:20.760Z,91.20
2022-09-03T04:58:50.979Z,91.30
2022-09-03T05:01:20.929Z,91.40
2022-09-03T05:03:47.649Z,91.20
2022-09-03T05:06:17.191Z,91.40
2022-09-03T05:08:47.538Z,91.70
2022-09-03T05:11:14.745Z,91.70
2022-09-03T05:13:41.364Z,91.70
2022-09-03T05:16:13.072Z,91.70
2022-09-03T05:18:42.315Z,91.50
2022-09-03T05:21:11.120Z,91.40
2022-09-03T05:23:39.795Z,91.30
2022-09-03T05:26:10.847Z,91.40
2022-09-03T05:28:39.985Z,91.50
2022-09-03T05:31:09.339Z,91.50
2022-09-03T05:33:37.903Z,91.50
2022-09-03T05:36:06.290Z,91.40
2022-09-03T05:38:33.059Z,91.40
2022-09-03T05:41:05.219Z,91.40
2022-09-03T05:43:32.991Z,91.30
2022-09-03T05:46:01.426Z,91.20
2022-09-03T05:48:30.945Z,91.40
2022-09-03T05:51:09.781Z,91.70
2022-09-03T05:53:39.067Z,91.60
2022-09-03T05:56:10.787Z,91.30
2022-09-03T05:58:41.250Z,91.20
2022-09-03T06:01:31.270Z,91.30
2022-09-03T06:04:05.722Z,91.50
2022-09-03T06:06:35.403Z,91.50
2022-09-03T06:09:03.832Z,91.50
2022-09-03T06:11:31.787Z,91.70
2022-09-03T06:14:08.097Z,91.50
2022-09-03T06:16:37.410Z,91.60
2022-09-03T06:19:09.840Z,91.40
2022-09-03T06:21:42.850Z,91.70
2022-09-03T06:24:12.057Z,91.80
2022-09-03T06:26:40.052Z,91.80
2022-09-03T06:29:09.689Z,91.80
2022-09-03T06:31:36.427Z,91.80
2022-09-03T06:34:04.329Z,91.90
2022-09-03T06:36:31.419Z,92.40
2022-09-03T06:38:58.539Z,92.50
2022-09-03T06:41:28.344Z,92.10
2022-09-03T06:46:54.854Z,92.00
2022-09-03T06:49:21.804Z,92.20
2022-09-03T06:51:48.740Z,92.20
2022-09-03T06:54:16.203Z,92.10
2022-09-03T06:56:43.140Z,92.10
2022-09-03T06:59:12.561Z,92.20
2022-09-03T07:01:41.210Z,92.20
2022-09-03T07:04:13.075Z,92.20
2022-09-03T07:06:42.799Z,92.50
2022-09-03T07:09:11.692Z,92.60
2022-09-03T07:11:46.773Z,92.50
2022-09-03T07:14:14.795Z,92.40
2022-09-03T07:16:44.301Z,92.30
2022-09-03T07:22:03.686Z,93.00
2022-09-03T07:24:30.531Z,92.90
2022-09-03T07:26:58.588Z,92.90
2022-09-03T07:29:25.439Z,92.80
2022-09-03T07:31:53.567Z,92.90
2022-09-03T07:34:24.097Z,92.70
2022-09-03T07:36:51.861Z,92.90
2022-09-03T07:39:19.562Z,93.30
2022-09-03T07:41:47.555Z,93.20
2022-09-03T07:44:20.020Z,93.20
2022-09-03T07:46:51.131Z,93.20
2022-09-03T07:49:20.351Z,93.20
2022-09-03T07:51:50.627Z,93.50
2022-09-03T07:54:17.830Z,93.80
2022-09-03T07:56:44.873Z,94.20
2022-09-03T07:59:12.232Z,94.20
2022-09-03T08:01:41.785Z,94.20
2022-09-03T08:04:09.873Z,93.90
2022-09-03T08:06:38.599Z,94.40
2022-09-03T08:09:08.814Z,94.70
2022-09-03T08:11:40.794Z,94.90
2022-09-03T08:14:12.846Z,95.30
2022-09-03T08:16:48.180Z,95.70
2022-09-03T08:19:16.151Z,96.90
2022-09-03T08:21:42.994Z,97.90
2022-09-03T08:29:52.795Z,99.90
2022-09-03T08:32:21.262Z,99.90
2022-09-03T08:34:48.204Z,99.90
2022-09-03T08:37:15.045Z,99.90
2022-09-03T08:39:41.923Z,99.90
2022-09-03T08:42:30.954Z,99.90
2022-09-03T08:48:25.700Z,99.90
2022-09-03T08:51:00.114Z,99.90
2022-09-03T08:53:33.589Z,99.90
2022-09-03T08:56:07.555Z,99.90
2022-09-03T08:58:38.653Z,99.90
2022-09-03T09:01:22.737Z,99.90
2022-09-03T09:07:14.742Z,99.90
2022-09-03T09:10:03.808Z,99.90
2022-09-03T09:12:45.596Z,99.90
2022-09-03T09:18:46.351Z,99.10
2022-09-03T09:21:21.943Z,98.60
2022-09-03T09:23:51.604Z,99.90
2022-09-03T09:26:21.575Z,99.90
2022-09-03T09:29:00.655Z,99.90
2022-09-03T09:34:22.083Z,99.90
2022-09-03T09:36:54.082Z,99.90
2022-09-03T09:39:21.463Z,99.90
2022-09-03T09:42:08.273Z,99.90
2022-09-03T09:44:43.338Z,99.90
2022-09-03T09:47:25.167Z,99.90
2022-09-03T09:49:58.265Z,99.90
2022-09-03T09:52:28.585Z,99.90
2022-09-03T09:55:09.102Z,99.90
2022-09-03T09:57:37.219Z,99.90
2022-09-03T10:00:17.784Z,99.90
2022-09-03T10:02:54.493Z,99.90
2022-09-03T10:05:39.058Z,99.90
2022-09-03T10:08:18.979Z,99.90
2022-09-03T10:10:50.991Z,99.90
2022-09-03T10:13:48.602Z,99.90
2022-09-03T10:16:39.817Z,99.80
2022-09-03T10:19:06.390Z,99.90
2022-09-03T10:21:45.001Z,99.90
2022-09-03T10:24:26.450Z,99.90
2022-09-03T10:26:53.182Z,99.80
2022-09-03T10:29:29.452Z,99.20
2022-09-03T10:32:23.013Z,98.80
2022-09-03T10:35:04.857Z,98.00
2022-09-03T10:37:41.100Z,97.20
2022-09-03T10:40:30.890Z,97.60
2022-09-03T10:43:32.511Z,97.00
2022-09-03T10:46:23.883Z,97.60
2022-09-03T10:49:10.583Z,98.40
2022-09-03T10:51:47.428Z,98.30
2022-09-03T10:54:49.745Z,97.90
2022-09-03T10:57:31.699Z,98.10
2022-09-03T11:00:11.874Z,98.80
2022-09-03T11:03:12.638Z,98.50
2022-09-03T11:12:05.126Z,99.20
2022-09-03T11:14:46.856Z,99.20
2022-09-03T11:17:47.246Z,98.90
2022-09-03T11:20:23.815Z,98.50
2022-09-03T11:25:57.236Z,98.80
2022-09-03T11:28:49.368Z,98.80
2022-09-03T11:31:57.819Z,98.80
2022-09-03T11:37:25.039Z,98.90
2022-09-03T11:39:59.945Z,99.60
2022-09-03T11:42:39.105Z,99.20
2022-09-03T11:48:46.018Z,99.30
2022-09-03T11:51:42.087Z,99.60
2022-09-03T11:54:21.106Z,99.90
2022-09-03T11:56:49.762Z,99.70
2022-09-03T11:59:24.592Z,99.20
2022-09-03T12:02:02.156Z,98.90
2022-09-03T12:04:46.334Z,98.90
2022-09-03T12:11:02.040Z,98.40
2022-09-03T12:13:56.639Z,96.90
2022-09-03T12:22:44.162Z,95.50
2022-09-03T12:25:15.764Z,95.40
2022-09-03T12:27:45.577Z,95.60
2022-09-03T12:30:19.066Z,95.60
2022-09-03T12:32:48.161Z,95.20
2022-09-03T12:38:18.234Z,94.10
2022-09-03T12:43:37.571Z,94.40
2022-09-03T12:46:10.438Z,94.10
2022-09-03T12:48:40.539Z,94.80
2022-09-03T12:53:57.126Z,94.20
2022-09-03T12:56:25.882Z,94.60
2022-09-03T12:59:01.534Z,96.00
2022-09-03T13:01:38.385Z,96.50
2022-09-03T13:04:34.427Z,96.90
2022-09-03T13:07:14.389Z,96.90
2022-09-03T13:09:42.173Z,96.80
2022-09-03T13:12:22.553Z,97.10
2022-09-03T13:14:52.412Z,97.20
2022-09-03T13:17:37.603Z,97.20
2022-09-03T13:20:29.321Z,97.40
2022-09-03T13:23:12.915Z,97.90
2022-09-03T13:26:08.406Z,97.40
2022-09-03T13:28:50.846Z,97.00
2022-09-03T13:31:27.768Z,97.20
2022-09-03T13:34:01.389Z,97.90
2022-09-03T13:36:36.928Z,98.30
2022-09-03T13:39:09.381Z,98.30
2022-09-03T13:42:14.028Z,98.20
2022-09-03T13:45:08.834Z,98.00
2022-09-03T13:48:01.899Z,97.60
2022-09-03T13:50:31.407Z,97.50
2022-09-03T13:53:04.769Z,96.90
2022-09-03T13:55:31.327Z,97.10
2022-09-03T13:58:28.568Z,97.00
2022-09-03T14:00:58.399Z,97.40
2022-09-03T14:03:31.170Z,97.90
2022-09-03T14:06:32.482Z,97.50
2022-09-03T14:09:21.648Z,97.50
2022-09-03T14:12:10.227Z,97.20
2022-09-03T14:15:00.818Z,97.00
2022-09-03T14:17:41.720Z,97.10
2022-09-03T14:20:28.918Z,97.20
2022-09-03T14:23:28.333Z,97.20
2022-09-03T14:26:00.040Z,96.90
2022-09-03T14:28:34.410Z,97.10
2022-09-03T14:31:17.349Z,97.00
2022-09-03T14:34:08.453Z,97.40
2022-09-03T14:36:44.250Z,97.30
2022-09-03T14:39:27.859Z,97.60
2022-09-03T14:42:11.671Z,97.80
2022-09-03T14:44:47.852Z,98.00
2022-09-03T14:47:52.993Z,97.60
2022-09-03T14:50:38.431Z,97.90
2022-09-03T14:53:07.966Z,98.00
2022-09-03T14:55:49.074Z,97.80
2022-09-03T14:58:44.379Z,97.90
2022-09-03T15:01:16.092Z,97.70
2022-09-03T15:03:42.751Z,97.40
2022-09-03T15:06:30.724Z,97.50
2022-09-03T15:09:32.263Z,97.40
2022-09-03T15:12:19.473Z,97.60
2022-09-03T15:15:03.191Z,97.40
2022-09-03T15:17:47.363Z,97.60
2022-09-03T15:20:35.812Z,97.40
2022-09-03T15:23:11.759Z,97.50
2022-09-03T15:25:54.046Z,97.40
2022-09-03T15:29:04.289Z,97.50
2022-09-03T15:31:53.261Z,97.50
2022-09-03T15:34:35.899Z,98.10
2022-09-03T15:37:11.963Z,98.20
2022-09-03T15:39:44.452Z,98.30
2022-09-03T15:42:23.654Z,98.40
2022-09-03T15:44:54.932Z,98.30
2022-09-03T15:47:54.306Z,98.70
2022-09-03T15:50:52.723Z,98.70
2022-09-03T15:53:39.621Z,98.70
2022-09-03T15:56:13.037Z,98.80
2022-09-03T15:59:17.960Z,99.20
2022-09-03T16:01:54.118Z,99.30
2022-09-03T16:04:26.909Z,99.30
2022-09-03T16:07:03.708Z,99.50
2022-09-03T16:10:07.604Z,99.40
2022-09-03T16:12:40.619Z,99.60
2022-09-03T16:15:11.852Z,99.80
2022-09-03T16:18:08.980Z,99.70
2022-09-03T16:20:55.132Z,99.60
2022-09-03T16:23:30.427Z,99.80
2022-09-03T16:26:45.807Z,99.90
2022-09-03T16:29:16.365Z,99.90
2022-09-03T16:32:09.101Z,99.90
2022-09-03T16:34:55.798Z,99.90
2022-09-03T16:37:58.693Z,99.90
2022-09-03T16:40:51.712Z,99.90
2022-09-03T16:43:41.604Z,99.90
2022-09-03T16:46:30.055Z,99.90
2022-09-03T16:49:26.897Z,99.90
2022-09-03T16:52:16.623Z,99.90
2022-09-03T16:54:57.117Z,99.90
2022-09-03T16:57:59.000Z,99.90
2022-09-03T17:00:57.406Z,99.90
2022-09-03T17:03:57.073Z,99.90
2022-09-03T17:06:30.733Z,99.90
2022-09-03T17:09:02.993Z,99.90
2022-09-03T17:11:59.108Z,99.90
2022-09-03T17:15:10.090Z,99.90
2022-09-03T17:17:53.603Z,99.90
2022-09-03T17:20:49.060Z,99.90
2022-09-03T17:23:38.006Z,99.90
2022-09-03T17:26:45.702Z,99.90
2022-09-03T17:29:52.853Z,99.90
2022-09-03T17:32:32.632Z,99.90
2022-09-03T17:35:17.073Z,99.90
2022-09-03T17:38:05.342Z,99.90
2022-09-03T17:40:53.489Z,99.90
2022-09-03T17:43:54.022Z,99.90
2022-09-03T17:46:35.515Z,99.90
2022-09-03T17:49:06.990Z,99.90
2022-09-03T17:51:59.816Z,99.90
2022-09-03T17:54:49.471Z,99.90
2022-09-03T17:57:30.980Z,99.90
2022-09-03T18:00:05.451Z,99.90
2022-09-03T18:02:40.159Z,99.90
2022-09-03T18:05:27.402Z,99.90
2022-09-03T18:11:18.575Z,99.90
2022-09-03T18:13:57.913Z,99.90
2022-09-03T18:16:35.470Z,99.90
2022-09-03T18:19:32.251Z,99.90
2022-09-03T18:22:22.848Z,99.90
2022-09-03T18:25:22.471Z,99.90
2022-09-03T18:28:17.364Z,99.90
2022-09-03T18:34:12.996Z,99.90
2022-09-03T18:36:58.679Z,99.90
2022-09-03T18:39:47.185Z,99.90
2022-09-03T18:42:41.417Z,99.90
2022-09-03T18:45:47.808Z,99.90
2022-09-03T18:48:37.295Z,99.90
2022-09-03T18:51:50.694Z,99.90
2022-09-03T18:55:08.066Z,99.90
2022-09-03T18:58:10.603Z,99.90
2022-09-03T19:04:34.823Z,99.90
2022-09-03T19:07:48.666Z,99.90
2022-09-03T19:13:56.378Z,99.90
2022-09-03T19:16:51.080Z,99.90
2022-09-03T19:19:51.598Z,99.90
2022-09-03T19:22:55.518Z,99.90
2022-09-03T19:25:42.942Z,99.90
2022-09-03T19:32:03.043Z,99.90
2022-09-03T19:35:07.491Z,99.90
2022-09-03T19:38:32.681Z,99.90
2022-09-03T19:41:45.600Z,99.90
2022-09-03T19:45:09.277Z,99.90
2022-09-03T19:48:09.815Z,99.90
2022-09-03T19:54:14.571Z,99.90
2022-09-03T19:57:00.856Z,99.90
2022-09-03T19:59:52.582Z,99.90
2022-09-03T20:05:47.604Z,99.90
2022-09-03T20:08:36.266Z,99.90
2022-09-03T20:11:05.201Z,99.90
2022-09-03T20:17:12.875Z,99.90
2022-09-03T20:20:07.154Z,99.90
2022-09-03T20:22:42.815Z,99.90
2022-09-03T20:28:45.712Z,99.90
2022-09-03T20:31:25.830Z,99.90
2022-09-03T20:37:12.788Z,99.90
2022-09-03T20:39:49.813Z,99.90
2022-09-03T20:45:54.862Z,99.90
2022-09-03T20:48:36.953Z,99.90
2022-09-03T20:51:12.009Z,99.90
2022-09-03T20:53:59.923Z,99.90
2022-09-03T20:59:59.539Z,99.90
2022-09-03T21:02:48.582Z,99.90
2022-09-03T21:08:55.118Z,99.90
2022-09-03T21:11:38.531Z,99.90
2022-09-03T21:18:24.171Z,99.90
2022-09-03T21:21:05.925Z,99.90
2022-09-03T21:23:41.098Z,99.90
2022-09-03T21:26:25.354Z,99.90
2022-09-03T21:29:09.539Z,99.90
2022-09-03T21:32:08.122Z,99.90
2022-09-03T21:34:58.507Z,99.90
2022-09-03T21:37:25.261Z,99.90
2022-09-03T21:39:56.518Z,99.90
2022-09-03T21:42:42.177Z,99.90
2022-09-03T21:45:37.169Z,99.90
2022-09-03T21:48:12.754Z,99.90
2022-09-03T21:50:46.381Z,99.90
2022-09-03T21:53:27.507Z,99.90
2022-09-03T21:56:03.219Z,99.90
2022-09-03T21:58:48.718Z,99.90
2022-09-03T22:01:32.309Z,99.90
2022-09-03T22:03:59.159Z,99.90
2022-09-03T22:06:42.864Z,99.90
2022-09-03T22:09:13.430Z,99.90
2022-09-03T22:11:49.966Z,99.90
2022-09-03T22:14:19.912Z,99.90
2022-09-03T22:16:50.146Z,99.90
2022-09-03T22:19:16.786Z,99.90
2022-09-03T22:21:59.382Z,99.90
2022-09-03T22:24:50.915Z,99.90
2022-09-03T22:27:44.649Z,99.90
2022-09-03T22:30:21.444Z,99.90
2022-09-03T22:33:15.483Z,99.90
2022-09-03T22:35:55.422Z,99.90
2022-09-03T22:38:48.404Z,99.90
2022-09-03T22:41:27.237Z,99.90
2022-09-03T22:44:20.588Z,99.90
2022-09-03T22:47:11.774Z,99.90
2022-09-03T22:49:53.165Z,99.90
2022-09-03T22:52:29.970Z,99.90
2022-09-03T22:55:05.468Z,99.90
2022-09-03T22:57:38.202Z,99.90
2022-09-03T23:00:10.304Z,99.90
2022-09-03T23:02:37.979Z,99.90
2022-09-03T23:05:38.671Z,99.90
2022-09-03T23:08:17.857Z,99.90
2022-09-03T23:10:44.531Z,99.90
2022-09-03T23:13:25.005Z,99.90
2022-09-03T23:22:00.387Z,99.90
2022-09-03T23:24:56.815Z,99.90
2022-09-03T23:27:34.306Z,99.90
2022-09-03T23:30:02.480Z,99.90
2022-09-03T23:32:33.300Z,99.90
2022-09-03T23:35:04.358Z,99.90
2022-09-03T23:37:34.887Z,99.90
2022-09-03T23:40:04.995Z,99.90
2022-09-03T23:42:53.256Z,99.90
2022-09-03T23:45:23.012Z,99.90
2022-09-03T23:47:54.717Z,99.90
2022-09-03T23:51:00.179Z,99.90
2022-09-03T23:57:03.993Z,99.90
